createdAt,value
2018-06-02T00:02:00.429Z,19.20
2018-06-02T00:04:27.903Z,19.10
2018-06-02T00:06:55.383Z,19.00
2018-06-02T00:09:23.353Z,19.00
2018-06-02T00:11:50.839Z,19.00
2018-06-02T00:14:18.322Z,19.00
2018-06-02T00:16:45.811Z,19.00
2018-06-02T00:19:13.379Z,19.00
2018-06-02T00:21:41.243Z,19.00
2018-06-02T00:24:08.725Z,19.00
2018-06-02T00:26:36.273Z,19.00
2018-06-02T00:29:03.760Z,19.00
2018-06-02T00:31:31.324Z,19.00
2018-06-02T00:33:58.829Z,19.00
2018-06-02T00:36:26.316Z,19.00
2018-06-02T00:38:53.800Z,19.00
2018-06-02T00:41:21.273Z,19.00
2018-06-02T00:43:48.748Z,19.00
2018-06-02T00:46:16.728Z,18.90
2018-06-02T00:48:44.201Z,18.90
2018-06-02T00:51:11.711Z,18.90
2018-06-02T00:53:39.275Z,18.80
2018-06-02T00:56:06.735Z,18.80
2018-06-02T00:58:34.237Z,18.80
2018-06-02T01:01:02.195Z,18.70
2018-06-02T01:03:29.802Z,18.70
2018-06-02T01:05:57.322Z,18.70
2018-06-02T01:08:24.764Z,18.70
2018-06-02T01:10:52.252Z,18.70
2018-06-02T01:13:20.209Z,18.60
2018-06-02T01:15:47.665Z,18.60
2018-06-02T01:18:15.260Z,18.60
2018-06-02T01:20:43.128Z,18.60
2018-06-02T01:23:11.049Z,18.60
2018-06-02T01:25:38.649Z,18.60
2018-06-02T01:28:06.207Z,18.60
2018-06-02T01:30:33.686Z,18.60
2018-06-02T01:33:01.159Z,18.60
2018-06-02T01:35:29.120Z,18.60
2018-06-02T01:37:56.699Z,18.60
2018-06-02T01:40:24.551Z,18.60
2018-06-02T01:42:52.095Z,18.60
2018-06-02T01:45:19.576Z,18.60
2018-06-02T01:47:47.108Z,18.60
2018-06-02T01:50:14.554Z,18.60
2018-06-02T01:52:42.035Z,18.60
2018-06-02T01:55:09.486Z,18.50
2018-06-02T01:57:36.941Z,18.50
2018-06-02T02:00:04.558Z,18.50
2018-06-02T02:02:32.118Z,18.50
2018-06-02T02:04:59.559Z,18.50
2018-06-02T02:07:27.924Z,18.60
2018-06-02T02:09:55.380Z,18.50
2018-06-02T02:12:22.922Z,18.60
2018-06-02T02:14:50.396Z,18.50
2018-06-02T02:17:17.878Z,18.50
2018-06-02T02:19:45.347Z,18.50
2018-06-02T02:22:12.800Z,18.40
2018-06-02T02:24:40.262Z,18.40
2018-06-02T02:27:07.735Z,18.40
2018-06-02T02:29:35.188Z,18.40
2018-06-02T02:32:02.705Z,18.40
2018-06-02T02:34:30.554Z,18.30
2018-06-02T02:36:58.037Z,18.30
2018-06-02T02:39:26.005Z,18.30
2018-06-02T02:41:53.456Z,18.30
2018-06-02T02:44:20.912Z,18.20
2018-06-02T02:46:48.396Z,18.20
2018-06-02T02:49:16.744Z,18.20
2018-06-02T02:51:44.237Z,18.30
2018-06-02T02:54:12.182Z,18.30
2018-06-02T02:56:39.667Z,18.30
2018-06-02T02:59:07.242Z,18.30
2018-06-02T03:01:34.782Z,18.30
2018-06-02T03:04:02.276Z,18.30
2018-06-02T03:06:29.740Z,18.30
2018-06-02T03:08:57.622Z,18.30
2018-06-02T03:11:25.100Z,18.30
2018-06-02T03:13:52.591Z,18.30
2018-06-02T03:16:20.085Z,18.30
2018-06-02T03:18:47.529Z,18.20
2018-06-02T03:21:14.981Z,18.20
2018-06-02T03:23:42.789Z,18.20
2018-06-02T03:26:10.676Z,18.20
2018-06-02T03:28:38.212Z,18.20
2018-06-02T03:31:05.661Z,18.20
2018-06-02T03:33:33.241Z,18.20
2018-06-02T03:36:00.716Z,18.20
2018-06-02T03:38:29.170Z,18.20
2018-06-02T03:40:56.655Z,18.20
2018-06-02T03:43:24.546Z,18.20
2018-06-02T03:45:52.375Z,18.10
2018-06-02T03:48:19.864Z,18.20
2018-06-02T03:50:49.881Z,18.20
2018-06-02T03:53:17.732Z,18.10
2018-06-02T03:55:45.192Z,18.20
2018-06-02T03:58:12.649Z,18.20
2018-06-02T04:00:40.099Z,18.20
2018-06-02T04:03:07.597Z,18.20
2018-06-02T04:05:35.076Z,18.20
2018-06-02T04:08:02.995Z,18.20
2018-06-02T04:10:30.484Z,18.20
2018-06-02T04:12:57.936Z,18.20
2018-06-02T04:15:25.493Z,18.20
2018-06-02T04:17:53.092Z,18.20
2018-06-02T04:20:20.961Z,18.20
2018-06-02T04:22:48.834Z,18.30
2018-06-02T04:25:16.712Z,18.20
2018-06-02T04:27:44.267Z,18.30
2018-06-02T04:30:12.126Z,18.20
2018-06-02T04:32:39.898Z,18.20
2018-06-02T04:35:07.869Z,18.20
2018-06-02T04:37:35.354Z,18.20
2018-06-02T04:40:03.264Z,18.20
2018-06-02T04:42:30.751Z,18.20
2018-06-02T04:44:58.307Z,18.30
2018-06-02T04:47:25.757Z,18.30
2018-06-02T04:49:53.232Z,18.30
2018-06-02T04:52:20.681Z,18.30
2018-06-02T04:54:48.133Z,18.30
2018-06-02T04:57:15.614Z,18.40
2018-06-02T04:59:43.102Z,18.40
2018-06-02T05:02:10.609Z,18.40
2018-06-02T05:04:38.091Z,18.40
2018-06-02T05:07:05.550Z,18.40
2018-06-02T05:09:33.008Z,18.50
2018-06-02T05:12:00.476Z,18.50
2018-06-02T05:14:27.988Z,18.50
2018-06-02T05:16:55.888Z,18.60
2018-06-02T05:19:23.409Z,18.60
2018-06-02T05:21:50.955Z,18.70
2018-06-02T05:24:18.415Z,18.80
2018-06-02T05:26:45.880Z,18.90
2018-06-02T05:29:13.442Z,18.90
2018-06-02T05:31:40.904Z,19.00
2018-06-02T05:34:08.362Z,19.00
2018-06-02T05:36:35.820Z,19.00
2018-06-02T05:39:03.292Z,19.00
2018-06-02T05:41:31.455Z,19.10
2018-06-02T05:43:58.925Z,19.10
2018-06-02T05:46:27.111Z,19.20
2018-06-02T05:48:54.681Z,19.20
2018-06-02T05:51:22.166Z,19.20
2018-06-02T05:53:49.718Z,19.20
2018-06-02T05:56:17.461Z,19.30
2018-06-02T05:58:44.917Z,19.20
2018-06-02T06:01:12.404Z,19.20
2018-06-02T06:03:39.865Z,19.30
2018-06-02T06:06:07.371Z,19.30
2018-06-02T06:08:34.889Z,19.30
2018-06-02T06:11:02.376Z,19.30
2018-06-02T06:13:29.836Z,19.30
2018-06-02T06:15:57.307Z,19.40
2018-06-02T06:18:25.265Z,19.50
2018-06-02T06:20:52.908Z,19.50
2018-06-02T06:23:20.500Z,19.50
2018-06-02T06:25:48.064Z,19.60
2018-06-02T06:28:15.512Z,19.60
2018-06-02T06:30:43.033Z,19.60
2018-06-02T06:33:10.529Z,19.70
2018-06-02T06:35:37.996Z,19.70
2018-06-02T06:38:05.475Z,19.70
2018-06-02T06:40:32.972Z,19.70
2018-06-02T06:43:00.580Z,19.70
2018-06-02T06:45:28.188Z,19.70
2018-06-02T06:47:56.147Z,19.70
2018-06-02T06:50:24.004Z,19.70
2018-06-02T06:52:51.466Z,19.70
2018-06-02T06:55:18.974Z,19.70
2018-06-02T06:57:46.520Z,19.70
2018-06-02T07:00:14.363Z,19.70
2018-06-02T07:02:41.818Z,19.70
2018-06-02T07:05:09.387Z,19.70
2018-06-02T07:07:36.972Z,19.70
2018-06-02T07:10:04.448Z,19.80
2018-06-02T07:12:32.415Z,19.80
2018-06-02T07:15:00.295Z,19.90
2018-06-02T07:17:28.248Z,20.00
2018-06-02T07:19:55.792Z,20.00
2018-06-02T07:22:23.273Z,20.10
2018-06-02T07:24:50.747Z,20.10
2018-06-02T07:27:18.304Z,20.20
2018-06-02T07:29:45.839Z,20.30
2018-06-02T07:32:13.366Z,20.30
2018-06-02T07:34:40.872Z,20.30
2018-06-02T07:37:08.334Z,20.50
2018-06-02T07:39:35.831Z,20.60
2018-06-02T07:42:03.687Z,20.60
2018-06-02T07:44:31.220Z,20.60
2018-06-02T07:46:58.708Z,20.70
2018-06-02T07:49:26.256Z,20.70
2018-06-02T07:51:54.418Z,20.70
2018-06-02T07:54:21.907Z,20.70
2018-06-02T07:56:49.492Z,20.80
2018-06-02T07:59:17.366Z,20.90
2018-06-02T08:01:45.240Z,20.90
2018-06-02T08:04:13.325Z,21.00
2018-06-02T08:06:41.189Z,21.10
2018-06-02T08:09:09.129Z,21.20
2018-06-02T08:11:36.632Z,21.20
2018-06-02T08:14:04.595Z,21.30
2018-06-02T08:16:32.258Z,21.30
2018-06-02T08:18:59.824Z,21.40
2018-06-02T08:21:27.795Z,21.60
2018-06-02T08:23:55.665Z,21.70
2018-06-02T08:26:23.237Z,21.70
2018-06-02T08:28:51.112Z,21.90
2018-06-02T08:31:19.225Z,21.80
2018-06-02T08:33:46.813Z,21.80
2018-06-02T08:36:14.292Z,21.80
2018-06-02T08:38:41.742Z,21.80
2018-06-02T08:41:09.352Z,21.80
2018-06-02T08:43:37.211Z,21.80
2018-06-02T08:46:05.129Z,21.90
2018-06-02T08:48:32.604Z,21.90
2018-06-02T08:51:00.065Z,22.00
2018-06-02T08:53:27.532Z,22.20
2018-06-02T08:55:54.995Z,22.20
2018-06-02T08:58:22.596Z,22.20
2018-06-02T09:00:50.548Z,22.40
2018-06-02T09:03:18.031Z,22.40
2018-06-02T09:05:46.000Z,22.60
2018-06-02T09:08:13.450Z,22.60
2018-06-02T09:10:40.970Z,22.70
2018-06-02T09:13:08.450Z,22.70
2018-06-02T09:15:35.930Z,22.70
2018-06-02T09:18:03.353Z,22.80
2018-06-02T09:20:30.826Z,22.90
2018-06-02T09:22:58.440Z,23.00
2018-06-02T09:25:26.349Z,23.50
2018-06-02T09:27:53.855Z,23.50
2018-06-02T09:30:21.302Z,23.80
2018-06-02T09:32:48.793Z,24.10
2018-06-02T09:35:16.361Z,24.30
2018-06-02T09:37:43.909Z,24.60
2018-06-02T09:40:11.390Z,25.00
2018-06-02T09:42:38.962Z,25.40
2018-06-02T09:45:06.944Z,26.20
2018-06-02T09:47:34.909Z,26.60
2018-06-02T09:50:02.804Z,27.00
2018-06-02T09:52:30.280Z,27.00
2018-06-02T09:54:57.741Z,27.40
2018-06-02T09:57:25.204Z,27.80
2018-06-02T09:59:52.704Z,28.00
2018-06-02T10:02:20.169Z,28.00
2018-06-02T10:04:47.652Z,27.80
2018-06-02T10:07:15.507Z,26.80
2018-06-02T10:09:43.068Z,26.80
2018-06-02T10:12:10.581Z,26.30
2018-06-02T10:14:38.725Z,25.70
2018-06-02T10:17:06.288Z,25.30
2018-06-02T10:19:33.748Z,25.00
2018-06-02T10:22:01.632Z,24.50
2018-06-02T10:24:29.560Z,24.30
2018-06-02T10:26:57.015Z,24.30
2018-06-02T10:29:24.471Z,24.20
2018-06-02T10:31:51.988Z,24.00
2018-06-02T10:34:19.440Z,23.90
2018-06-02T10:36:47.375Z,23.60
2018-06-02T10:39:14.864Z,23.60
2018-06-02T10:41:42.303Z,23.40
2018-06-02T10:44:09.792Z,23.30
2018-06-02T10:46:37.275Z,23.20
2018-06-02T10:49:04.794Z,23.10
2018-06-02T10:51:32.294Z,23.20
2018-06-02T10:53:59.739Z,23.20
2018-06-02T10:56:27.235Z,23.20
2018-06-02T10:58:55.113Z,23.20
2018-06-02T11:01:23.057Z,23.30
2018-06-02T11:03:50.633Z,23.30
2018-06-02T11:06:18.114Z,23.30
2018-06-02T11:08:46.044Z,23.40
2018-06-02T11:11:13.632Z,23.40
2018-06-02T11:13:41.603Z,23.50
2018-06-02T11:16:09.172Z,23.50
2018-06-02T11:18:39.163Z,23.60
2018-06-02T11:21:06.756Z,23.60
2018-06-02T11:23:34.611Z,23.70
2018-06-02T11:26:02.204Z,23.70
2018-06-02T11:28:30.133Z,23.80
2018-06-02T11:30:57.729Z,23.80
2018-06-02T11:33:25.177Z,23.90
2018-06-02T11:35:52.728Z,23.90
2018-06-02T11:38:20.186Z,23.90
2018-06-02T11:40:47.679Z,23.90
2018-06-02T11:43:15.227Z,24.00
2018-06-02T11:45:42.711Z,24.00
2018-06-02T11:48:10.587Z,24.10
2018-06-02T11:50:38.448Z,24.20
2018-06-02T11:53:06.425Z,24.20
2018-06-02T11:55:34.289Z,24.10
2018-06-02T11:58:01.831Z,24.20
2018-06-02T12:00:29.302Z,24.10
2018-06-02T12:02:56.802Z,24.00
2018-06-02T12:05:24.646Z,23.90
2018-06-02T12:07:52.146Z,23.90
2018-06-02T12:10:19.585Z,23.90
2018-06-02T12:12:47.465Z,23.90
2018-06-02T12:15:15.399Z,24.00
2018-06-02T12:17:43.497Z,24.00
2018-06-02T12:20:11.481Z,24.20
2018-06-02T12:22:39.340Z,24.30
2018-06-02T12:25:06.815Z,24.30
2018-06-02T12:27:34.764Z,24.50
2018-06-02T12:30:02.229Z,24.50
2018-06-02T12:32:29.693Z,24.60
2018-06-02T12:34:57.181Z,24.60
2018-06-02T12:37:25.044Z,24.60
2018-06-02T12:39:52.909Z,24.60
2018-06-02T12:42:20.772Z,24.60
2018-06-02T12:44:48.322Z,24.60
2018-06-02T12:47:15.768Z,24.60
2018-06-02T12:49:43.236Z,24.70
2018-06-02T12:52:10.704Z,24.70
2018-06-02T12:54:38.288Z,24.70
2018-06-02T12:57:05.832Z,24.60
2018-06-02T12:59:33.285Z,24.60
2018-06-02T13:02:00.776Z,24.50
2018-06-02T13:04:28.343Z,24.40
2018-06-02T13:06:55.912Z,24.40
2018-06-02T13:09:24.163Z,24.30
2018-06-02T13:11:51.646Z,24.30
2018-06-02T13:14:19.229Z,24.30
2018-06-02T13:16:47.160Z,24.40
2018-06-02T13:19:14.612Z,24.40
2018-06-02T13:21:42.088Z,24.40
2018-06-02T13:24:09.580Z,24.40
2018-06-02T13:26:37.050Z,24.40
2018-06-02T13:29:04.965Z,24.40
2018-06-02T13:31:32.467Z,24.40
2018-06-02T13:34:00.062Z,24.40
2018-06-02T13:36:27.957Z,24.40
2018-06-02T13:38:55.433Z,24.40
2018-06-02T13:41:22.975Z,24.40
2018-06-02T13:43:50.474Z,24.30
2018-06-02T13:46:17.964Z,24.30
2018-06-02T13:48:45.423Z,24.30
2018-06-02T13:51:12.959Z,24.30
2018-06-02T13:53:40.517Z,24.30
2018-06-02T13:56:08.017Z,24.30
2018-06-02T13:58:35.876Z,24.30
2018-06-02T14:01:03.459Z,24.30
2018-06-02T14:03:30.966Z,24.30
2018-06-02T14:05:58.673Z,24.40
2018-06-02T14:08:26.165Z,24.30
2018-06-02T14:10:54.012Z,24.30
2018-06-02T14:13:21.484Z,24.30
2018-06-02T14:15:49.372Z,24.30
2018-06-02T14:18:17.326Z,24.20
2018-06-02T14:20:45.164Z,24.10
2018-06-02T14:23:12.626Z,24.10
2018-06-02T14:25:40.155Z,24.00
2018-06-02T14:28:07.572Z,24.00
2018-06-02T14:30:35.194Z,23.90
2018-06-02T14:33:03.005Z,24.00
2018-06-02T14:35:30.485Z,24.00
2018-06-02T14:37:58.104Z,24.00
2018-06-02T14:40:25.937Z,24.10
2018-06-02T14:42:53.849Z,24.20
2018-06-02T14:45:21.311Z,24.20
2018-06-02T14:47:48.819Z,24.20
2018-06-02T14:50:16.272Z,24.30
2018-06-02T14:52:43.732Z,24.30
2018-06-02T14:55:11.263Z,24.40
2018-06-02T14:57:38.715Z,24.40
2018-06-02T15:00:06.188Z,24.40
2018-06-02T15:02:33.653Z,24.40
2018-06-02T15:05:01.156Z,24.40
2018-06-02T15:07:28.611Z,24.40
2018-06-02T15:09:56.607Z,24.40
2018-06-02T15:12:24.460Z,24.40
2018-06-02T15:14:52.329Z,24.40
2018-06-02T15:17:19.963Z,24.40
2018-06-02T15:19:47.565Z,24.40
2018-06-02T15:22:15.475Z,24.50
2018-06-02T15:24:42.967Z,24.50
2018-06-02T15:27:10.872Z,24.50
2018-06-02T15:29:38.328Z,24.50
2018-06-02T15:32:05.878Z,24.60
2018-06-02T15:34:33.371Z,24.50
2018-06-02T15:37:01.266Z,24.50
2018-06-02T15:39:28.716Z,24.50
2018-06-02T15:41:56.212Z,24.50
2018-06-02T15:44:23.732Z,24.60
2018-06-02T15:46:51.604Z,24.80
2018-06-02T15:49:19.948Z,24.90
2018-06-02T15:51:47.490Z,24.80
2018-06-02T15:54:14.998Z,24.80
2018-06-02T15:56:42.572Z,24.80
2018-06-02T15:59:10.427Z,24.70
2018-06-02T16:01:38.000Z,24.70
2018-06-02T16:04:05.964Z,24.70
2018-06-02T16:06:33.444Z,24.70
2018-06-02T16:09:01.328Z,24.80
2018-06-02T16:11:29.296Z,24.80
2018-06-02T16:13:57.157Z,24.80
2018-06-02T16:16:24.636Z,24.80
2018-06-02T16:18:52.509Z,24.80
2018-06-02T16:21:20.488Z,24.90
2018-06-02T16:23:48.016Z,24.90
2018-06-02T16:26:15.505Z,24.90
2018-06-02T16:28:43.453Z,25.00
2018-06-02T16:31:10.934Z,25.00
2018-06-02T16:33:38.905Z,25.10
2018-06-02T16:36:06.384Z,25.10
2018-06-02T16:38:34.328Z,25.00
2018-06-02T16:41:01.884Z,25.00
2018-06-02T16:43:29.372Z,25.00
2018-06-02T16:45:57.313Z,24.90
2018-06-02T16:48:24.810Z,24.90
2018-06-02T16:50:52.766Z,24.90
2018-06-02T16:53:20.217Z,24.90
2018-06-02T16:55:47.682Z,24.90
2018-06-02T16:58:15.211Z,25.00
2018-06-02T17:00:42.711Z,25.00
2018-06-02T17:03:10.290Z,25.00
2018-06-02T17:05:38.178Z,25.00
2018-06-02T17:08:06.069Z,25.00
2018-06-02T17:10:33.591Z,25.00
2018-06-02T17:13:01.041Z,25.00
2018-06-02T17:15:28.625Z,25.00
2018-06-02T17:17:56.105Z,25.00
2018-06-02T17:20:23.829Z,25.00
2018-06-02T17:22:51.359Z,25.00
2018-06-02T17:25:18.838Z,25.00
2018-06-02T17:27:46.313Z,25.10
2018-06-02T17:30:13.772Z,25.10
2018-06-02T17:32:41.244Z,25.10
2018-06-02T17:35:08.844Z,25.10
2018-06-02T17:37:36.340Z,25.00
2018-06-02T17:40:03.793Z,25.00
2018-06-02T17:42:31.308Z,25.00
2018-06-02T17:44:58.803Z,25.00
2018-06-02T17:47:26.268Z,25.00
2018-06-02T17:49:53.776Z,24.90
2018-06-02T17:52:21.248Z,24.80
2018-06-02T17:54:48.735Z,24.60
2018-06-02T17:57:16.190Z,24.60
2018-06-02T17:59:43.973Z,24.50
2018-06-02T18:02:11.847Z,24.50
2018-06-02T18:04:39.806Z,24.40
2018-06-02T18:07:07.267Z,24.40
2018-06-02T18:09:35.249Z,24.30
2018-06-02T18:12:02.771Z,24.30
2018-06-02T18:14:30.281Z,24.30
2018-06-02T18:16:58.245Z,24.20
2018-06-02T18:19:25.817Z,24.20
2018-06-02T18:21:54.325Z,24.00
2018-06-02T18:24:21.862Z,24.00
2018-06-02T18:26:49.728Z,23.80
2018-06-02T18:29:17.610Z,23.80
2018-06-02T18:31:45.469Z,23.80
2018-06-02T18:34:12.956Z,23.80
2018-06-02T18:36:41.026Z,23.80
2018-06-02T18:39:08.900Z,23.70
2018-06-02T18:41:36.398Z,23.70
2018-06-02T18:44:03.932Z,23.80
2018-06-02T18:46:31.390Z,23.80
2018-06-02T18:48:58.920Z,23.80
2018-06-02T18:51:26.396Z,23.80
2018-06-02T18:53:53.895Z,23.90
2018-06-02T18:56:21.359Z,23.90
2018-06-02T18:58:48.886Z,23.90
2018-06-02T19:01:16.844Z,23.90
2018-06-02T19:03:44.330Z,23.90
2018-06-02T19:06:12.273Z,23.80
2018-06-02T19:08:39.858Z,23.80
2018-06-02T19:11:07.435Z,23.70
2018-06-02T19:13:35.400Z,23.80
2018-06-02T19:16:03.277Z,23.70
2018-06-02T19:18:31.163Z,23.70
2018-06-02T19:20:58.803Z,23.70
2018-06-02T19:23:26.559Z,23.70
2018-06-02T19:25:54.091Z,23.70
2018-06-02T19:28:21.559Z,23.60
2018-06-02T19:30:49.033Z,23.60
2018-06-02T19:33:16.526Z,23.50
2018-06-02T19:35:43.992Z,23.50
2018-06-02T19:38:11.917Z,23.40
2018-06-02T19:40:39.362Z,23.40
2018-06-02T19:43:06.824Z,23.40
2018-06-02T19:45:34.305Z,23.40
2018-06-02T19:48:01.820Z,23.30
2018-06-02T19:50:29.788Z,23.20
2018-06-02T19:52:57.267Z,23.20
2018-06-02T19:55:24.720Z,23.10
2018-06-02T19:57:52.568Z,23.10
2018-06-02T20:00:20.073Z,23.10
2018-06-02T20:02:47.938Z,22.90
2018-06-02T20:05:15.447Z,23.00
2018-06-02T20:07:42.929Z,22.90
2018-06-02T20:10:10.371Z,22.80
2018-06-02T20:12:37.853Z,22.80
2018-06-02T20:15:06.279Z,22.70
2018-06-02T20:17:33.760Z,22.70
2018-06-02T20:20:01.244Z,22.70
2018-06-02T20:22:29.136Z,22.60
2018-06-02T20:24:56.592Z,22.60
2018-06-02T20:27:24.097Z,22.60
2018-06-02T20:29:51.616Z,22.60
2018-06-02T20:32:19.086Z,22.50
2018-06-02T20:34:46.623Z,22.50
2018-06-02T20:37:14.108Z,22.50
2018-06-02T20:39:41.607Z,22.50
2018-06-02T20:42:09.075Z,22.40
2018-06-02T20:44:36.610Z,22.40
2018-06-02T20:47:04.093Z,22.40
2018-06-02T20:49:32.050Z,22.30
2018-06-02T20:51:59.496Z,22.40
2018-06-02T20:54:26.945Z,22.30
2018-06-02T20:56:54.507Z,22.30
2018-06-02T20:59:22.781Z,22.30
2018-06-02T21:01:50.270Z,22.20
2018-06-02T21:04:17.800Z,22.20
2018-06-02T21:06:45.288Z,22.20
2018-06-02T21:09:12.752Z,22.10
2018-06-02T21:11:40.192Z,22.10
2018-06-02T21:14:07.640Z,22.00
2018-06-02T21:16:35.248Z,22.00
2018-06-02T21:19:02.700Z,22.00
2018-06-02T21:21:30.172Z,21.90
2018-06-02T21:23:57.645Z,21.90
2018-06-02T21:26:25.094Z,21.90
2018-06-02T21:28:52.616Z,21.80
2018-06-02T21:31:20.072Z,21.70
2018-06-02T21:33:47.545Z,21.70
2018-06-02T21:36:15.012Z,21.70
2018-06-02T21:38:42.516Z,21.60
2018-06-02T21:41:11.716Z,21.50
2018-06-02T21:43:39.280Z,21.50
2018-06-02T21:46:06.742Z,21.40
2018-06-02T21:48:34.224Z,21.40
2018-06-02T21:51:02.097Z,21.30
2018-06-02T21:53:30.019Z,21.30
2018-06-02T21:55:57.466Z,21.30
2018-06-02T21:58:24.999Z,21.20
2018-06-02T22:00:52.875Z,21.10
2018-06-02T22:03:20.746Z,21.10
2018-06-02T22:05:48.632Z,21.00
2018-06-02T22:08:16.105Z,21.00
2018-06-02T22:10:43.552Z,21.00
2018-06-02T22:13:11.025Z,21.00
2018-06-02T22:15:38.516Z,20.90
2018-06-02T22:18:06.024Z,20.90
2018-06-02T22:20:33.485Z,20.90
2018-06-02T22:23:01.508Z,20.90
2018-06-02T22:25:28.981Z,20.90
2018-06-02T22:27:56.565Z,20.80
2018-06-02T22:30:24.117Z,20.80
2018-06-02T22:32:51.598Z,20.80
2018-06-02T22:35:19.048Z,20.80
2018-06-02T22:37:46.513Z,20.70
2018-06-02T22:40:14.372Z,20.70
2018-06-02T22:42:41.837Z,20.70
2018-06-02T22:45:48.335Z,20.60
2018-06-02T22:48:17.396Z,20.60
2018-06-02T22:50:45.648Z,20.60
2018-06-02T22:53:14.011Z,20.50
2018-06-02T22:55:42.256Z,20.50
2018-06-02T22:58:10.536Z,20.50
2018-06-02T23:00:38.797Z,20.40
2018-06-02T23:03:07.015Z,20.40
2018-06-02T23:05:35.476Z,20.30
2018-06-02T23:08:03.747Z,20.30
2018-06-02T23:10:32.025Z,20.30
2018-06-02T23:13:00.284Z,20.30
2018-06-02T23:15:28.515Z,20.20
2018-06-02T23:17:56.853Z,20.20
2018-06-02T23:20:25.129Z,20.10
2018-06-02T23:22:53.383Z,20.10
2018-06-02T23:25:21.682Z,20.10
2018-06-02T23:27:49.935Z,20.10
2018-06-02T23:30:18.268Z,20.10
2018-06-02T23:32:46.519Z,20.10
2018-06-02T23:35:14.714Z,20.10
2018-06-02T23:37:43.000Z,20.00
2018-06-02T23:40:12.273Z,20.00
2018-06-02T23:42:40.916Z,20.00
2018-06-02T23:45:09.359Z,20.00
2018-06-02T23:47:37.645Z,20.00
2018-06-02T23:50:05.948Z,19.90
2018-06-02T23:52:34.261Z,19.90
2018-06-02T23:55:02.537Z,19.80
2018-06-02T23:57:30.788Z,19.80
2018-06-02T23:59:59.029Z,19.70
